Date,TemperatureHighF,TemperatureAvgF,TemperatureLowF,DewpointHighF,DewpointAvgF,DewpointLowF,HumidityHigh,HumidityAvg,HumidityLow,PressureMaxIn,PressureMinIn,WindSpeedMaxMPH,WindSpeedAvgMPH,GustSpeedMaxMPH,PrecipitationSumIn
2014-1-1,55.9,35.9,25.7,28.9,22.1,18.8,82,61,30,29.56,29.29,6,0,6,0.00
2014-1-2,47.3,38.3,30.4,41.3,32.6,22.6,100,81,55,29.32,28.79,7,0,7,0.29
2014-1-3,40.5,26.8,17.1,22.6,6.2,0.7,60,42,29,29.62,28.88,10,3,10,0.00
2014-1-4,41.5,27.6,0.0,21.6,11.3,4.5,75,52,33,29.65,0.00,6,1,6,0.00
2014-1-5,40.5,36.2,32.7,40.5,33.5,21.6,100,90,62,29.44,28.94,2,1,2,0.21
2014-1-6,45.3,34.7,10.0,43.2,21.3,-11.7,100,63,35,29.35,28.82,9,2,9,0.16
2014-1-7,31.3,14.7,4.8,3.1,-7.5,-16.3,45,36,28,29.62,29.35,8,2,8,0.00
2014-1-8,52.2,25.4,9.3,19.0,5.2,-7.8,70,43,27,29.71,29.56,0,0,0,0.00
2014-1-9,56.1,35.3,21.2,25.1,16.8,10.3,69,50,25,29.71,29.59,3,0,3,0.00
2014-1-10,39.2,37.3,34.9,37.8,31.3,19.6,100,81,45,29.59,29.24,4,0,4,0.58
2014-1-11,60.6,48.2,37.8,60.6,47.3,37.0,100,97,67,29.26,28.73,5,1,5,1.00
2014-1-12,63.7,45.4,31.3,39.5,28.4,23.3,80,54,29,29.35,28.88,8,1,8,0.00
2014-1-13,62.6,44.4,27.7,39.9,30.5,25.1,93,63,34,29.35,29.12,12,1,12,0.00
2014-1-14,62.4,45.5,31.1,49.9,40.4,29.3,100,84,48,29.15,28.94,6,0,6,0.25
2014-1-15,63.9,39.8,27.0,45.1,30.3,24.4,100,73,37,29.12,29.00,6,1,6,0.00
2014-1-16,50.0,34.4,25.0,28.6,18.2,12.1,81,54,30,29.20,29.06,7,1,7,0.00
2014-1-17,56.3,37.9,23.5,28.3,20.7,15.4,79,53,32,29.18,29.00,8,1,8,0.00
2014-1-18,43.9,31.1,23.9,23.4,11.0,6.0,63,44,30,29.20,29.00,11,2,11,0.00
2014-1-19,56.7,37.7,23.5,26.6,17.6,10.2,64,45,31,29.12,29.06,8,1,8,0.00
2014-1-20,68.7,43.7,26.2,29.4,22.2,16.8,74,47,23,29.09,28.94,10,1,10,0.00
2014-1-21,52.0,34.8,25.0,31.5,24.0,13.8,90,66,41,29.00,28.70,6,1,6,0.04
2014-1-22,36.5,24.0,16.3,14.7,6.6,0.2,65,48,31,29.24,29.00,4,1,4,1.34
2014-1-23,41.0,24.9,12.0,14.2,6.0,-4.6,73,46,31,29.59,29.20,0,0,0,0.00
2014-1-24,34.5,18.3,5.9,5.7,-4.9,-13.8,44,35,28,29.74,29.35,6,1,6,0.00
2014-1-25,40.8,28.9,18.5,12.4,4.0,-5.3,45,34,29,29.35,28.76,13,4,13,0.00
2014-1-26,58.5,36.8,25.0,23.6,13.6,7.1,52,40,24,29.12,28.94,8,3,8,0.00
2014-1-27,67.8,47.5,28.4,37.0,25.1,6.7,51,42,31,29.26,28.94,8,2,8,0.00
2014-1-28,28.0,21.5,18.1,11.3,5.1,-3.7,74,51,34,29.50,29.26,8,2,8,0.00
2014-1-29,36.0,20.5,7.5,10.3,1.7,-10.8,73,46,27,29.47,29.29,3,2,3,0.00
2014-1-30,44.8,19.4,2.1,13.1,-1.6,-15.8,62,40,26,29.56,29.35,5,0,5,0.04
2014-1-31,59.2,30.8,12.2,23.0,11.1,0.6,70,46,25,29.35,29.24,0,0,0,0.00
2014-2-1,64.2,42.0,21.7,30.3,21.0,12.6,76,47,24,29.38,29.24,0,0,0,0.00
2014-2-2,68.2,50.2,33.6,46.9,36.3,27.2,94,61,35,29.26,29.15,2,0,2,0.17
2014-2-3,58.6,49.2,37.9,56.3,45.6,33.5,97,88,72,29.47,29.00,8,1,8,0.20
2014-2-4,42.8,37.7,33.1,36.7,32.1,28.8,96,81,61,29.59,29.26,6,1,6,0.17
2014-2-5,57.6,42.3,36.0,46.1,36.0,22.8,100,81,45,29.29,28.94,10,1,10,0.08
2014-2-6,46.8,37.0,29.1,23.7,19.0,15.7,62,49,37,29.47,29.26,6,2,6,0.00
2014-2-7,53.6,36.9,25.9,29.2,22.8,20.0,81,59,36,29.50,29.38,4,0,4,0.00
2014-2-8,56.7,39.0,0.0,29.3,25.6,20.6,77,57,35,29.44,29.24,5,2,5,0.17
2014-2-9,58.5,42.1,28.2,36.0,29.6,22.1,82,63,40,29.35,29.12,10,1,10,0.00
2014-2-10,41.7,35.2,32.0,29.8,27.7,21.5,85,75,46,29.41,29.18,6,1,6,0.00
2014-2-11,37.6,30.5,21.4,29.9,16.6,10.7,86,57,43,29.53,29.38,3,3,3,0.00
2014-2-12,25.9,22.7,20.8,19.4,13.7,7.1,88,69,45,29.56,29.00,4,1,4,0.00
2014-2-13,37.4,32.7,22.5,34.8,28.9,19.0,97,87,50,29.41,28.64,3,3,3,0.12
2014-2-14,66.2,43.7,27.5,29.1,23.5,18.3,74,48,23,28.94,28.82,3,3,3,0.37
2014-2-15,48.2,38.1,29.1,38.8,23.3,9.0,100,60,30,29.24,28.70,14,4,14,0.13
2014-2-16,57.6,38.3,28.6,25.5,18.2,9.7,72,46,29,29.32,29.12,6,2,6,0.00
2014-2-17,49.5,36.2,25.2,23.9,20.1,16.4,79,54,36,29.50,29.29,3,3,3,0.00
2014-2-18,69.6,45.8,30.0,31.8,25.1,20.2,79,48,22,29.38,29.24,3,3,3,0.00
2014-2-19,73.6,52.9,38.3,57.0,42.5,26.8,100,71,36,29.26,29.06,8,2,8,0.12
2014-2-20,72.0,54.0,42.1,57.6,41.2,34.6,100,65,39,29.38,29.12,6,0,6,0.00
2014-2-21,66.4,56.5,33.1,59.6,46.4,27.8,100,71,30,29.20,28.97,18,3,18,0.21
2014-2-22,73.4,46.9,30.4,42.5,27.1,18.4,91,55,17,29.38,29.18,5,1,6,0.04
2014-2-23,75.6,52.2,31.8,36.6,29.6,24.0,75,46,22,29.26,29.00,10,2,10,0.00
2014-2-24,64.0,47.6,31.8,34.9,22.9,11.0,71,40,22,29.29,29.03,13,2,13,0.00
2014-2-25,59.4,39.4,26.1,23.3,17.4,12.8,67,43,25,29.29,29.09,9,1,9,0.00
2014-2-26,56.3,39.3,25.5,24.1,16.1,6.3,53,39,28,29.15,28.94,10,1,10,0.00
2014-2-27,58.8,36.1,18.1,19.7,10.1,3.3,70,38,17,29.15,28.88,12,1,12,0.00
2014-2-28,50.4,33.7,22.5,18.9,9.0,2.1,44,36,27,29.47,29.15,8,1,8,0.00
2014-3-1,58.1,37.2,24.6,26.0,16.9,6.8,65,45,29,29.50,29.35,8,0,8,0.00
2014-3-2,76.6,52.4,27.9,42.0,33.0,19.8,79,52,28,29.41,29.06,13,2,13,0.00
2014-3-3,60.6,37.2,19.6,45.5,29.8,12.9,91,76,49,29.44,28.97,14,2,14,0.37
2014-3-4,39.6,26.0,10.8,14.7,10.9,5.5,82,55,33,29.50,29.35,12,1,12,0.09
2014-3-5,52.7,35.5,26.2,26.5,18.3,13.8,66,51,36,29.44,29.26,4,0,4,0.00
2014-3-6,42.4,33.8,27.0,28.6,18.7,10.6,90,56,38,29.56,29.32,12,2,14,0.00
2014-3-7,43.0,33.1,29.1,37.1,30.2,26.3,95,89,74,29.32,29.09,10,1,10,0.41
2014-3-8,70.9,44.9,25.9,45.5,31.9,24.4,97,67,32,29.20,29.12,8,1,8,0.79
2014-3-9,70.2,47.8,32.5,42.1,31.4,26.6,88,59,25,29.26,29.12,7,1,7,0.00
2014-3-10,75.7,49.8,27.9,41.1,28.9,24.0,89,52,21,29.20,28.94,10,1,10,0.00
2014-3-11,84.2,57.1,34.2,44.5,32.4,26.8,81,46,19,29.00,28.82,12,1,12,0.00
2014-3-12,71.1,56.0,40.5,59.2,43.7,19.7,93,65,41,28.88,28.41,13,3,18,0.17
2014-3-13,51.1,38.1,27.0,19.5,12.2,4.7,46,35,21,29.38,28.85,13,3,13,0.00
2014-3-14,66.0,43.8,21.7,23.8,16.2,7.8,62,36,18,29.47,29.18,10,2,14,0.00
2014-3-15,75.7,57.1,40.8,35.5,26.9,18.1,51,33,22,29.20,29.09,13,2,13,0.00
2014-3-16,52.5,42.7,36.1,39.5,32.3,25.3,95,69,38,29.20,29.00,11,1,11,0.45
2014-3-17,35.1,30.9,28.6,33.8,28.1,25.5,95,89,84,29.15,29.00,13,2,13,0.09
2014-3-18,39.7,33.1,28.4,35.4,30.5,25.8,96,90,81,29.35,29.12,7,1,10,0.33
2014-3-19,49.1,40.7,33.8,43.5,38.1,33.0,100,91,79,29.35,29.12,6,0,6,0.08
2014-3-20,70.5,51.0,35.6,45.0,31.3,20.3,100,57,19,29.24,29.09,13,2,13,0.00
2014-3-21,73.8,50.9,28.2,36.5,25.8,18.5,78,43,21,29.35,29.18,8,2,11,0.00
2014-3-22,78.6,60.3,47.3,37.6,31.9,25.5,61,36,22,29.20,29.09,10,2,12,0.00
2014-3-23,53.1,44.1,34.5,43.0,34.1,26.0,86,69,40,29.35,29.12,11,1,11,0.12
2014-3-24,58.5,41.0,28.0,26.6,16.7,10.9,67,39,22,29.44,29.24,9,1,9,0.00
2014-3-25,43.5,36.7,31.3,36.4,27.0,16.2,88,68,52,29.24,28.94,7,1,7,0.13
2014-3-26,52.7,36.8,26.6,19.6,14.4,9.4,61,41,26,29.47,29.12,12,2,12,0.00
2014-3-27,63.0,41.9,20.8,26.0,18.2,11.1,73,42,23,29.59,29.41,15,2,15,0.00
2014-3-28,66.4,55.9,48.0,54.4,46.4,26.0,94,71,42,29.41,29.26,13,2,13,0.04
2014-3-29,65.5,59.2,54.5,63.4,57.7,47.9,100,95,79,29.32,28.76,9,1,9,0.21
2014-3-30,57.7,46.7,38.7,47.8,28.5,22.1,79,51,32,29.15,28.79,16,4,16,0.04
2014-3-31,80.1,53.9,30.4,31.2,25.4,20.5,80,40,15,29.26,29.12,12,1,12,0.00
2014-4-1,85.8,59.5,35.2,41.7,32.6,27.3,77,43,18,29.32,29.12,12,1,12,0.00
2014-4-2,92.3,67.0,44.2,48.5,38.1,33.0,72,41,17,29.29,29.12,10,1,10,0.00
2014-4-3,81.0,62.2,49.3,49.0,42.1,34.6,68,49,32,29.32,29.06,8,1,8,0.00
2014-4-4,81.0,66.1,49.5,53.6,48.4,42.2,85,56,33,29.12,28.88,16,2,16,0.00
2014-4-5,76.1,61.7,49.6,44.9,33.3,23.5,67,36,22,29.26,28.97,11,2,11,0.00
2014-4-6,66.0,52.9,39.7,31.1,27.2,21.9,55,38,27,29.41,29.24,10,1,10,0.00
2014-4-7,60.6,49.2,43.0,58.6,44.9,30.3,100,87,39,29.26,28.85,12,1,12,1.82
2014-4-8,73.6,61.6,52.2,60.6,45.4,31.5,100,61,29,28.91,28.76,12,2,12,0.04
2014-4-9,73.2,57.0,43.5,43.3,34.8,26.6,80,47,24,29.29,28.88,10,1,10,0.00
2014-4-10,77.9,57.5,34.9,45.5,33.2,27.2,87,47,21,29.47,29.29,13,2,13,0.00
2014-4-11,82.2,66.8,51.6,42.3,36.7,32.1,52,35,21,29.38,29.20,13,2,13,0.00
2014-4-12,87.3,68.0,49.8,50.5,43.6,37.8,76,45,24,29.41,29.24,13,1,13,0.00
2014-4-13,85.1,71.4,57.2,50.9,48.8,43.9,70,47,30,29.38,29.24,14,3,14,0.00
2014-4-14,77.7,68.1,61.5,63.2,55.6,49.2,91,66,40,29.26,29.00,12,4,12,0.00
2014-4-15,68.5,57.2,36.1,65.8,52.5,20.4,100,85,53,29.24,28.82,12,3,12,0.53
2014-4-16,61.9,43.6,28.9,27.1,23.0,18.3,82,48,25,29.62,29.24,14,2,14,0.00
2014-4-17,68.0,47.3,29.3,32.1,27.1,22.8,84,51,23,29.77,29.59,10,1,10,0.00
2014-4-18,61.5,49.4,38.7,41.5,35.5,28.5,83,61,38,29.65,29.41,10,1,10,0.00
2014-4-19,63.1,53.0,45.9,46.5,42.5,38.6,94,70,41,29.53,29.35,13,1,13,0.00
2014-4-20,75.6,59.3,46.2,42.7,35.1,28.4,76,45,22,29.50,29.38,17,2,17,0.00
2014-4-21,80.1,58.6,37.9,36.8,32.9,27.8,79,44,20,29.38,29.12,8,1,8,0.00
2014-4-22,84.4,63.3,49.8,56.9,46.3,34.4,90,57,29,29.12,28.88,8,1,8,0.00
2014-4-23,76.8,61.6,47.8,53.1,37.1,26.1,94,48,20,29.20,28.88,10,1,10,0.00
2014-4-24,75.6,58.3,37.9,41.6,32.9,28.2,77,42,22,29.35,29.15,9,1,9,0.00
2014-4-25,79.7,60.6,46.9,64.7,50.3,38.1,83,70,46,29.18,28.88,8,1,10,0.00
2014-4-26,83.1,65.5,46.0,50.3,42.0,35.3,85,49,21,29.24,28.91,11,1,11,0.00
2014-4-27,89.1,69.9,48.7,51.7,43.7,38.5,81,45,20,29.24,29.06,6,1,6,0.00
2014-4-28,68.0,60.4,54.0,53.3,48.5,43.0,81,66,47,29.24,29.12,8,1,8,0.00
2014-4-29,56.1,53.8,50.7,54.9,52.1,48.3,100,94,81,29.26,29.12,5,1,5,0.00
2014-4-30,79.5,64.2,52.9,72.5,59.2,52.9,100,86,58,29.26,29.06,8,1,8,0.04
2014-5-1,80.8,71.0,57.6,62.6,50.8,37.0,90,53,26,29.12,28.94,12,2,12,0.00
2014-5-2,71.4,59.6,47.3,49.0,40.2,36.8,83,52,32,29.18,29.03,9,1,9,0.00
2014-5-3,76.5,64.4,50.5,51.4,41.5,35.4,84,47,24,29.12,29.03,9,1,9,0.00
2014-5-4,86.2,68.0,48.4,54.3,43.3,39.4,80,46,21,29.20,29.00,11,1,11,0.00
2014-5-5,75.4,64.3,53.1,54.1,49.3,46.3,85,60,42,29.24,29.00,9,1,9,0.00
2014-5-6,84.7,66.3,50.7,57.9,50.9,47.1,91,62,29,29.20,29.06,5,0,5,0.00
2014-5-7,76.5,66.5,59.2,60.4,58.3,55.8,91,76,54,29.35,29.18,6,1,6,0.00
2014-5-8,88.2,73.1,55.8,66.7,52.7,42.1,96,57,21,29.38,29.26,6,1,7,0.00
2014-5-9,87.3,72.5,59.7,63.1,56.2,51.1,84,60,31,29.35,29.20,9,1,9,0.00
2014-5-10,83.1,69.4,61.0,64.4,60.6,57.5,95,76,45,29.32,29.18,8,1,8,0.04
2014-5-11,80.8,69.4,58.1,68.4,58.4,52.9,100,72,39,29.38,29.24,6,0,6,0.00
2014-5-12,87.8,73.3,56.3,68.8,58.3,54.0,95,65,33,29.41,29.29,6,0,6,0.00
2014-5-13,89.8,77.1,61.5,70.1,61.4,56.1,94,63,33,29.35,29.24,9,0,9,0.00
2014-5-14,87.4,77.3,68.2,67.0,60.8,54.2,84,59,37,29.38,29.24,8,1,8,0.00
2014-5-15,72.7,68.5,61.7,68.2,65.2,57.8,100,90,60,29.29,29.03,11,1,11,0.00
2014-5-16,69.3,60.9,52.2,59.1,47.9,36.1,100,67,34,29.29,29.06,5,0,5,0.00
2014-5-17,68.4,58.3,43.0,48.0,39.4,34.6,82,52,33,29.38,29.24,5,1,5,0.30
2014-5-18,66.0,58.5,49.8,45.2,41.8,37.5,81,55,36,29.44,29.35,5,0,5,0.00
2014-5-19,71.6,59.1,45.9,53.1,44.0,39.8,92,62,34,29.53,29.41,6,0,6,0.00
2014-5-20,77.4,64.9,48.9,56.8,50.3,45.1,90,62,37,29.47,29.29,6,0,6,0.00
2014-5-21,84.4,74.5,63.7,64.6,58.0,53.4,85,59,37,29.32,29.12,5,0,6,0.00
2014-5-22,84.6,75.0,66.0,66.3,59.5,54.7,83,61,39,29.18,29.09,5,0,5,0.00
2014-5-23,84.0,70.4,61.5,69.0,56.4,45.8,93,65,31,29.26,29.12,4,0,4,0.00
2014-5-24,77.9,66.8,51.6,55.0,46.7,42.8,83,52,31,29.35,29.24,5,0,5,0.00
2014-5-25,79.9,67.5,52.7,60.9,53.1,47.4,90,64,35,29.47,29.32,5,0,5,0.00
2014-5-26,84.7,73.9,58.8,64.9,59.3,55.6,92,63,39,29.47,29.24,6,0,6,0.00
2014-5-27,87.8,74.2,66.4,69.6,63.7,59.3,91,72,43,29.32,29.18,4,0,4,0.00
2014-5-28,86.5,75.6,63.1,71.1,63.8,59.4,96,70,42,29.24,29.12,2,0,6,0.00
2014-5-29,79.5,71.6,65.5,68.2,64.2,62.1,93,78,63,29.32,29.18,6,0,6,0.00
2014-5-30,78.1,71.1,66.0,69.9,64.4,61.9,96,80,61,29.35,29.24,4,0,9,0.00
2014-5-31,81.0,71.4,62.4,66.7,58.2,50.5,94,66,38,29.41,29.29,7,0,7,0.00
2014-6-1,76.3,67.6,58.6,56.5,51.3,45.7,82,59,35,29.56,29.38,8,1,8,0.00
2014-6-2,79.3,67.8,52.7,60.3,52.0,49.0,90,61,37,29.50,29.29,5,0,5,0.00
2014-6-3,83.1,71.2,57.6,63.3,58.8,52.8,91,67,45,29.35,29.12,4,0,4,0.00
2014-6-4,89.2,76.9,63.9,69.5,63.3,58.8,92,66,41,29.15,28.97,6,0,6,0.00
2014-6-5,87.3,77.7,67.6,69.1,63.4,58.6,79,63,45,29.09,28.91,6,0,6,0.00
2014-6-6,81.1,70.2,60.1,65.1,58.5,54.6,83,68,41,29.18,29.06,6,0,6,0.00
2014-6-7,81.5,71.8,60.3,68.1,59.6,54.0,94,69,40,29.26,29.12,8,0,8,0.00
2014-6-8,84.2,73.0,67.1,67.9,63.8,60.0,90,74,48,29.18,29.06,7,0,7,0.00
2014-6-9,83.3,74.4,67.3,69.8,66.0,62.4,95,77,50,29.15,29.06,8,0,8,0.04
2014-6-10,88.0,77.0,65.7,72.9,66.8,61.2,100,74,41,29.15,29.06,8,0,8,0.00
2014-6-11,87.8,75.9,66.0,73.0,64.3,59.2,97,72,40,29.20,29.03,4,0,10,0.52
2014-6-12,82.4,74.1,67.8,72.8,66.4,61.3,97,79,54,29.15,29.00,4,0,4,0.12
2014-6-13,86.0,74.4,64.8,68.7,64.3,60.5,96,73,50,29.09,29.00,4,0,4,0.00
2014-6-14,82.9,72.9,62.6,66.1,58.5,50.6,94,65,34,29.29,29.09,5,0,5,0.00
2014-6-15,82.9,70.2,57.0,65.4,59.3,53.7,92,71,40,29.41,29.26,5,0,5,0.00
2014-6-16,92.3,78.1,65.7,73.4,65.4,60.1,95,69,39,29.41,29.29,6,0,6,0.00
2014-6-17,93.6,80.5,69.3,71.7,66.2,61.6,92,65,38,29.38,29.26,4,0,4,0.00
2014-6-18,95.2,82.3,71.1,73.5,65.4,59.7,87,60,34,29.35,29.24,5,0,5,0.00
2014-6-19,93.6,79.9,70.9,70.9,65.3,58.3,86,63,39,29.32,29.20,5,0,5,0.00
2014-6-20,90.0,76.9,68.2,72.8,67.9,63.9,95,76,48,29.29,29.15,6,0,6,0.04
2014-6-21,85.3,76.4,68.2,76.6,68.7,64.0,100,79,51,29.15,29.00,4,0,4,0.21
2014-6-22,81.7,74.0,68.5,73.2,67.4,64.3,100,81,58,29.24,29.03,5,0,7,0.00
2014-6-23,81.9,74.2,66.6,67.9,64.4,60.2,95,73,50,29.35,29.18,3,0,6,0.00
2014-6-24,85.1,75.7,67.3,71.4,65.7,61.2,92,73,49,29.35,29.20,8,1,8,0.00
2014-6-25,87.8,76.9,71.2,72.7,68.8,64.6,97,78,48,29.20,29.09,6,0,6,0.04
2014-6-26,91.8,78.3,67.6,71.6,65.3,60.1,96,68,41,29.24,29.12,6,0,6,0.00
2014-6-27,85.5,74.4,69.1,71.7,67.6,63.9,94,80,52,29.32,29.18,6,0,6,0.04
2014-6-28,82.6,74.7,69.3,69.4,66.7,60.7,96,78,49,29.47,29.29,8,0,8,0.00
2014-6-29,84.0,73.4,63.7,65.1,57.5,47.9,86,60,32,29.47,29.32,6,0,6,0.00
2014-6-30,86.7,75.7,63.1,69.1,63.9,49.6,93,69,44,29.35,29.15,6,0,6,0.00
2014-7-1,90.7,81.4,72.1,73.3,68.4,63.5,90,67,43,29.24,29.06,5,0,5,0.00
2014-7-2,93.0,84.7,74.8,74.8,69.3,65.2,88,62,42,29.18,29.09,4,0,4,0.00
2014-7-3,89.1,79.0,72.0,74.4,69.3,64.1,86,73,46,29.20,29.06,9,0,9,0.21
2014-7-4,84.2,75.0,64.2,67.4,55.6,48.0,86,54,32,29.41,29.15,7,0,7,0.00
2014-7-5,82.4,69.7,55.9,57.1,49.6,45.7,83,53,31,29.50,29.29,6,0,6,0.00
2014-7-6,85.5,73.0,57.0,65.4,55.3,50.4,90,58,32,29.41,29.20,6,0,6,0.00
2014-7-7,90.0,80.3,68.5,69.9,60.7,54.1,84,54,30,29.26,29.12,6,0,6,0.00
2014-7-8,91.9,82.1,72.1,70.1,62.1,52.8,80,54,29,29.24,29.06,6,0,6,0.00
2014-7-9,86.5,75.9,69.8,69.7,66.4,61.5,94,74,47,29.24,29.12,6,0,6,0.33
2014-7-10,80.1,73.3,69.6,72.3,68.8,66.0,100,87,65,29.35,29.18,4,0,4,0.00
2014-7-11,83.8,74.2,68.4,69.5,66.3,60.1,97,79,46,29.44,29.29,5,0,5,0.00
2014-7-12,88.3,76.7,65.5,72.6,64.3,57.5,96,69,37,29.47,29.32,5,0,5,0.00
2014-7-13,89.6,79.0,68.7,73.0,66.2,62.5,91,67,42,29.35,29.18,3,0,3,0.00
2014-7-14,93.9,82.8,72.0,71.3,64.7,57.1,84,58,30,29.24,29.06,6,0,6,0.00
2014-7-15,90.0,76.7,69.6,74.3,68.9,62.8,100,78,44,29.09,28.97,4,0,4,1.00
2014-7-16,79.2,70.6,64.8,69.8,62.6,52.4,100,79,41,29.15,29.00,6,0,6,0.66
2014-7-17,79.2,68.9,56.7,61.3,56.1,51.3,94,67,40,29.32,29.12,4,0,4,0.00
2014-7-18,80.1,69.8,60.3,68.2,62.3,57.9,94,78,49,29.41,29.29,4,0,4,0.00
2014-7-19,78.8,70.3,65.7,66.5,62.8,51.5,95,79,41,29.41,29.29,4,0,4,0.00
2014-7-20,75.7,69.6,63.9,69.2,65.9,61.0,97,88,78,29.35,29.24,5,0,5,0.09
2014-7-21,77.9,73.0,69.1,73.6,69.9,66.8,100,90,76,29.38,29.26,3,0,3,0.00
2014-7-22,82.9,74.9,68.2,73.0,69.4,67.7,100,84,62,29.41,29.29,5,0,5,0.00
2014-7-23,90.0,78.6,67.5,74.5,68.5,63.5,97,74,43,29.32,29.12,4,0,4,0.00
2014-7-24,86.5,75.6,68.0,73.5,69.2,64.9,95,82,53,29.20,29.00,4,0,4,0.16
2014-7-25,81.1,72.8,67.3,68.9,66.2,63.1,97,81,57,29.29,29.18,5,0,5,0.00
2014-7-26,87.3,77.4,68.2,74.7,67.7,61.4,97,75,45,29.26,29.12,4,0,4,0.00
2014-7-27,85.3,77.8,70.7,74.1,68.9,64.5,95,75,56,29.18,28.94,6,0,6,0.12
2014-7-28,84.4,77.4,67.1,68.1,58.4,50.6,80,54,33,29.09,28.94,6,0,6,0.00
2014-7-29,79.5,69.5,59.2,62.5,56.5,50.3,89,66,38,29.20,29.06,5,0,5,0.00
2014-7-30,78.6,69.7,60.6,61.6,59.1,55.3,88,70,45,29.32,29.18,4,0,4,0.00
2014-7-31,78.1,70.0,61.9,67.6,64.0,59.8,95,82,60,29.38,29.26,4,0,4,0.13
2014-8-1,68.2,66.2,63.1,68.0,65.9,63.1,100,99,95,29.38,29.29,2,0,2,0.99
2014-8-2,69.6,65.9,62.6,67.3,64.8,62.6,100,97,88,29.35,29.29,0,0,0,0.00
2014-8-3,79.9,71.2,64.2,69.6,65.7,62.4,100,85,58,29.35,29.24,3,0,3,0.00
2014-8-4,82.8,73.6,64.9,68.3,65.0,59.9,100,77,48,29.35,29.24,4,0,4,0.00
2014-8-5,85.5,74.6,64.6,71.4,65.2,58.1,96,75,42,29.32,29.18,4,0,4,0.00
2014-8-6,86.7,76.2,65.8,68.9,64.6,54.8,94,71,35,29.24,29.12,3,0,3,0.00
2014-8-7,84.4,74.8,66.4,69.6,64.8,59.9,95,73,46,29.26,29.12,5,0,5,0.00
2014-8-8,74.7,70.0,66.0,69.5,66.6,63.5,97,89,73,29.38,29.24,0,0,0,0.04
2014-8-9,69.6,66.4,64.6,68.7,65.6,63.3,100,97,93,29.35,29.24,0,0,4,0.17
2014-8-10,72.1,68.0,65.5,72.1,68.0,65.5,100,100,97,29.35,29.26,0,0,0,0.21
2014-8-11,74.5,71.1,69.1,71.7,69.5,65.1,100,95,74,29.32,29.18,1,0,1,1.16
2014-8-12,84.6,74.3,69.1,75.2,70.9,68.0,100,90,66,29.20,29.00,0,0,0,0.00
2014-8-13,77.4,71.1,64.8,71.0,61.5,54.7,97,74,46,29.24,29.03,0,0,0,0.00
2014-8-14,81.0,68.5,0.0,62.6,56.4,51.4,93,66,37,29.26,29.15,0,0,0,0.00
2014-8-15,82.2,71.6,60.8,67.2,61.9,57.0,93,74,43,29.29,29.15,0,0,0,0.00
2014-8-16,83.8,73.2,64.6,65.9,62.9,56.5,95,73,42,29.26,29.18,0,0,0,0.00
2014-8-17,84.2,75.0,67.1,69.7,65.7,59.0,95,76,43,29.24,29.12,0,0,0,0.00
2014-8-18,83.3,73.6,70.5,75.0,70.6,68.2,100,91,67,29.15,29.00,0,0,0,0.66
2014-8-19,84.4,74.7,67.6,74.4,69.6,65.0,100,86,58,29.12,29.00,0,0,0,0.04
2014-8-20,85.8,75.7,69.6,74.1,70.1,65.6,100,84,52,29.26,29.09,0,0,0,0.00
2014-8-21,86.0,77.2,68.4,71.8,68.2,63.0,96,76,47,29.32,29.18,0,0,0,0.05
2014-8-22,86.5,77.2,68.0,76.0,71.0,66.7,97,83,57,29.29,29.12,0,0,0,0.00
2014-8-23,83.7,76.5,70.7,76.1,71.6,69.0,100,86,65,29.20,29.12,0,0,0,0.29
2014-8-24,76.6,71.9,68.9,69.8,65.1,60.1,92,80,59,29.35,29.18,0,0,0,0.00
2014-8-25,78.1,69.2,59.7,64.0,57.5,52.0,95,69,41,29.38,29.29,0,0,0,0.00
2014-8-26,78.8,68.3,58.6,63.1,57.7,54.0,94,72,44,29.41,29.29,0,0,0,0.00
2014-8-27,83.1,71.1,58.3,64.6,58.9,53.5,94,69,38,29.35,29.18,0,0,0,0.00
2014-8-28,88.2,76.2,64.8,70.7,66.4,62.1,93,74,47,29.26,29.15,0,0,0,0.00
2014-8-29,78.3,73.6,69.4,70.3,66.4,61.0,92,79,64,29.41,29.24,0,0,0,0.00
2014-8-30,89.1,78.6,71.6,73.9,68.0,59.5,95,73,38,29.44,29.29,1,0,1,0.00
2014-8-31,89.2,78.9,71.8,73.0,69.3,64.7,93,74,46,29.38,29.24,0,0,0,0.00
2014-9-1,91.2,79.2,71.1,74.3,66.5,57.7,94,69,34,29.35,29.20,0,0,0,0.00
2014-9-2,93.4,81.9,70.0,72.7,65.9,59.6,92,63,34,29.29,29.12,0,0,0,0.00
2014-9-3,88.3,78.5,68.4,69.8,65.5,61.7,92,67,43,29.35,29.18,0,0,0,0.00
2014-9-4,85.5,75.0,69.3,71.7,69.1,65.8,95,83,59,29.41,29.29,0,0,0,0.08
2014-9-5,83.3,74.0,68.5,75.4,70.7,67.7,100,90,68,29.44,29.29,0,0,0,0.08
2014-9-6,87.6,75.4,0.0,75.3,68.3,63.2,100,80,46,29.32,29.12,0,0,0,0.00
2014-9-7,81.3,73.5,68.0,70.7,65.6,62.0,97,78,53,29.35,29.18,5,0,5,0.04
2014-9-8,71.6,66.5,62.6,67.3,64.5,61.1,100,93,75,29.38,29.26,0,0,0,0.71
2014-9-9,75.2,67.7,62.8,68.3,65.0,62.8,100,92,71,29.38,29.29,0,0,0,0.00
2014-9-10,76.5,69.6,63.5,69.4,66.2,62.6,100,90,69,29.38,29.24,0,0,0,0.00
2014-9-11,88.2,74.9,64.8,71.7,67.2,63.6,100,79,48,29.29,29.12,0,0,0,0.00
2014-9-12,75.2,71.6,68.5,71.8,68.0,63.0,100,88,73,29.32,29.18,0,0,0,0.04
2014-9-13,76.3,69.4,63.0,70.3,65.3,55.4,100,87,70,29.44,29.24,0,0,0,0.00
2014-9-14,68.5,64.2,62.2,59.0,55.3,49.9,87,73,54,29.50,29.38,0,0,0,0.00
2014-9-15,75.0,67.2,60.4,64.7,61.1,57.7,96,82,59,29.47,29.29,0,0,0,0.00
2014-9-16,80.4,71.6,67.1,67.7,64.5,58.6,96,80,50,29.32,29.15,0,0,0,2.43
2014-9-17,75.4,66.8,61.2,66.5,61.0,57.6,97,83,59,29.24,29.12,0,0,0,0.00
2014-9-18,75.4,67.2,59.9,65.3,61.5,58.5,97,83,60,29.26,29.15,0,0,0,0.00
2014-9-19,73.8,67.6,62.6,63.8,60.8,54.9,93,80,54,29.47,29.24,0,0,0,0.00
2014-9-20,78.3,66.6,57.9,62.9,57.2,52.0,97,75,41,29.44,29.24,0,0,6,0.00
2014-9-21,84.0,70.1,56.7,64.9,58.6,54.7,95,70,42,29.24,29.00,0,0,0,0.00
2014-9-22,74.1,65.6,55.6,63.3,52.7,45.9,89,65,39,29.41,29.06,0,0,0,0.00
2014-9-23,60.6,57.5,53.1,50.9,46.6,42.1,87,68,52,29.56,29.35,6,0,6,0.00
2014-9-24,60.6,57.6,52.7,60.6,54.2,48.3,100,89,78,29.59,29.47,0,0,0,0.17
2014-9-25,70.2,63.9,60.6,63.8,61.7,60.5,100,93,75,29.53,29.41,0,0,0,0.04
2014-9-26,71.2,65.1,60.4,63.5,61.7,58.9,100,89,70,29.47,29.38,0,0,0,0.00
2014-9-27,74.7,64.0,56.3,62.2,56.0,50.6,100,78,44,29.47,29.35,0,0,0,0.00
2014-9-28,73.8,62.6,52.7,61.5,56.7,51.0,95,83,55,29.47,29.32,0,0,0,0.00
2014-9-29,67.3,63.9,61.3,65.3,62.4,59.5,100,95,89,29.32,29.18,0,0,0,0.12
2014-9-30,78.1,66.9,61.0,65.8,61.9,56.9,100,86,50,29.20,29.09,0,0,0,0.00
2014-10-1,74.1,65.3,58.5,65.1,60.9,57.0,100,87,61,29.29,29.12,0,0,0,0.00
2014-10-2,81.7,68.4,58.5,66.5,61.9,57.3,100,82,48,29.38,29.24,0,0,0,0.00
2014-10-3,79.9,68.8,61.0,68.2,62.6,53.6,97,83,42,29.29,28.97,6,0,6,0.08
2014-10-4,69.8,60.6,43.0,67.5,45.7,28.3,95,62,29,29.15,28.91,6,0,6,0.13
2014-10-5,64.8,49.8,36.9,44.1,34.5,31.4,86,59,33,29.24,29.09,4,0,4,0.00
2014-10-6,74.5,58.0,40.6,48.4,40.5,36.1,87,57,32,29.26,29.18,6,0,6,0.00
2014-10-7,76.3,65.7,55.4,53.9,48.5,42.1,78,55,41,29.32,29.15,6,0,6,0.00
2014-10-8,82.8,68.9,56.5,59.8,51.4,44.3,82,56,31,29.29,29.12,7,0,7,0.00
2014-10-9,81.7,63.7,50.4,56.5,48.4,44.7,87,62,30,29.38,29.26,6,0,6,0.00
2014-10-10,82.9,67.5,55.9,63.7,58.7,52.2,94,76,41,29.35,29.15,6,0,6,0.33
2014-10-11,81.0,68.8,58.5,69.8,62.9,52.0,100,83,50,29.32,29.15,7,0,7,0.13
2014-10-12,58.5,56.8,55.2,57.9,54.5,51.1,100,92,79,29.47,29.29,4,0,4,0.12
2014-10-13,69.8,61.8,56.8,66.9,61.3,56.8,100,98,89,29.47,29.35,3,0,3,0.08
2014-10-14,81.0,73.1,64.8,70.5,67.1,62.9,100,83,57,29.38,29.06,11,1,11,0.04
2014-10-15,73.0,62.9,54.1,68.0,56.2,49.2,97,81,48,29.12,28.97,6,0,6,1.00
2014-10-16,68.9,57.6,50.9,54.7,49.8,44.9,96,77,44,29.09,28.97,4,0,4,0.00
2014-10-17,76.8,58.8,47.1,54.3,47.1,43.3,95,70,34,29.15,29.00,6,0,6,0.00
2014-10-18,72.5,59.8,50.5,59.4,45.1,38.0,93,63,33,29.15,28.97,6,1,6,0.00
2014-10-19,70.2,54.0,43.3,41.8,38.1,34.5,78,57,32,29.35,29.15,5,0,5,0.00
2014-10-20,73.8,54.0,39.4,49.0,40.7,35.2,89,65,32,29.35,29.15,8,0,8,0.00
2014-10-21,73.4,59.2,47.7,54.1,43.1,33.2,91,59,33,29.20,29.03,4,1,6,0.00
2014-10-22,66.6,53.5,44.4,38.8,36.0,33.3,72,53,35,29.26,29.15,5,1,7,0.00
2014-10-23,71.6,52.7,38.5,43.1,37.2,33.4,85,59,33,29.29,29.12,6,1,6,0.00
2014-10-24,68.7,52.1,40.5,45.6,39.4,35.6,86,65,36,29.26,29.15,5,0,5,0.00
2014-10-25,75.6,53.2,36.5,46.2,37.5,33.0,88,61,26,29.26,29.06,4,0,4,0.00
2014-10-26,80.6,61.5,44.8,50.8,38.7,27.8,74,47,21,29.20,29.03,5,1,5,0.00
2014-10-27,82.8,56.4,38.7,47.4,37.5,29.8,80,54,23,29.32,29.18,6,0,6,0.00
2014-10-28,85.1,62.4,46.6,56.7,47.2,41.8,86,62,30,29.35,29.20,7,0,7,0.00
2014-10-29,75.6,61.5,53.2,57.4,50.6,45.3,92,69,44,29.24,29.12,4,0,6,0.00
2014-10-30,70.0,53.5,42.4,49.6,40.0,33.1,91,65,30,29.29,29.18,6,0,6,0.00
2014-10-31,59.5,47.8,36.9,43.1,37.3,32.5,87,68,45,29.20,29.00,5,0,5,0.00
2014-11-1,52.3,46.0,41.7,43.7,37.3,26.3,95,74,48,29.20,28.94,6,1,6,0.94
2014-11-2,56.8,43.5,34.3,26.6,20.5,17.4,51,40,28,29.50,29.18,8,2,8,0.00
2014-11-3,70.0,45.0,27.5,31.6,23.5,17.4,75,47,20,29.59,29.47,6,0,6,0.00
2014-11-4,68.9,52.9,38.7,36.8,30.4,25.8,69,45,24,29.53,29.38,8,0,8,0.00
2014-11-5,71.6,58.3,50.9,46.1,35.4,29.8,71,43,31,29.47,29.32,5,0,5,0.00
2014-11-6,66.4,59.6,49.8,61.1,48.3,27.2,93,68,37,29.32,28.94,12,1,12,0.12
2014-11-7,61.0,48.6,34.2,33.5,29.0,24.9,71,48,34,29.29,29.06,8,2,8,0.00
2014-11-8,61.2,43.0,29.3,34.4,28.2,23.6,81,59,35,29.29,29.12,7,0,7,0.00
2014-11-9,65.3,47.4,37.8,42.2,34.4,31.2,86,64,35,29.24,29.12,4,0,4,0.00
2014-11-10,73.0,48.5,32.9,45.4,34.4,28.9,87,63,31,29.32,29.20,7,0,8,0.00
2014-11-11,81.1,54.6,38.7,50.2,42.4,32.3,87,67,32,29.26,29.09,4,0,4,0.00
2014-11-12,79.7,57.1,41.9,53.4,40.2,31.8,90,58,30,29.26,29.12,5,1,5,0.00
2014-11-13,55.4,49.8,39.9,32.1,28.7,22.6,53,44,40,29.29,29.15,8,1,8,0.00
2014-11-14,47.1,35.7,24.8,28.0,15.6,5.7,74,45,31,29.50,29.24,5,2,7,0.00
2014-11-15,50.0,31.6,19.9,19.1,11.4,5.6,60,44,28,29.62,29.47,5,0,5,0.00
2014-11-16,56.3,42.4,25.3,30.9,21.7,12.1,61,45,29,29.53,29.20,7,0,7,0.00
2014-11-17,50.2,45.2,36.3,48.6,39.2,19.9,96,81,51,29.20,28.76,6,1,6,0.37
2014-11-18,38.3,29.5,19.4,19.9,8.1,3.5,54,41,31,29.47,29.09,11,3,11,0.00
2014-11-19,47.7,29.7,14.2,15.9,9.1,3.6,67,44,28,29.53,29.35,8,1,8,0.00
2014-11-20,61.9,41.6,27.5,28.0,18.1,9.2,56,40,27,29.35,29.15,11,1,11,0.00
2014-11-21,54.7,34.8,23.7,20.6,14.2,7.2,65,45,26,29.68,29.29,6,0,6,0.00
2014-11-22,59.4,35.1,19.0,23.5,14.1,8.0,65,44,24,29.71,29.47,7,1,7,0.00
2014-11-23,62.8,46.3,31.3,62.6,35.6,15.2,100,68,45,29.47,28.88,10,0,10,0.75
2014-11-24,76.1,65.9,58.8,61.9,53.5,46.0,97,67,37,29.09,28.88,14,3,14,0.00
2014-11-25,65.3,57.0,46.9,59.9,42.5,32.9,89,60,36,29.29,29.06,10,0,10,0.04
2014-11-26,46.9,41.9,35.1,42.6,39.1,33.3,97,90,75,29.24,29.12,6,0,6,0.95
2014-11-27,49.6,40.3,31.6,40.6,32.4,16.0,100,77,42,29.44,29.12,9,1,9,0.26
2014-11-28,50.0,33.0,23.4,25.7,17.4,14.5,82,55,31,29.56,29.41,8,1,8,0.00
2014-11-29,57.7,39.1,24.8,28.9,23.3,17.9,82,57,29,29.47,29.35,9,1,9,0.00
2014-11-30,70.3,48.1,30.4,41.0,32.7,22.5,83,58,33,29.47,29.35,9,1,9,0.00
2014-12-1,78.6,56.0,40.6,45.3,40.9,35.5,90,61,31,29.50,29.41,7,1,7,0.00
2014-12-2,53.4,43.0,39.0,50.3,37.9,33.9,95,83,68,29.62,29.47,8,1,8,0.00
2014-12-3,56.1,46.6,39.2,50.7,44.6,37.9,100,93,81,29.50,29.35,8,1,8,0.00
2014-12-4,58.6,45.5,36.3,44.5,34.7,27.1,100,70,41,29.59,29.44,5,0,5,0.00
2014-12-5,47.1,43.9,38.5,39.4,34.7,29.3,88,70,58,29.68,29.53,3,0,3,0.00
2014-12-6,51.6,46.5,38.1,50.2,44.5,35.3,100,93,77,29.59,29.20,4,0,4,0.16
2014-12-7,58.1,46.4,36.3,44.1,26.4,14.1,79,49,26,29.65,29.35,11,2,11,0.00
2014-12-8,42.1,36.9,33.8,33.0,21.7,12.7,90,56,40,29.65,29.35,8,1,8,0.17
2014-12-9,58.5,43.9,35.6,40.8,33.8,27.7,95,70,42,29.35,29.06,8,1,8,0.12
2014-12-10,51.8,39.1,28.4,34.4,23.1,15.8,87,55,35,29.20,29.12,12,2,12,0.00
2014-12-11,53.6,35.1,23.0,24.5,15.6,8.5,73,47,28,29.32,29.12,8,1,8,0.00
2014-12-12,62.1,40.2,26.8,24.8,15.6,9.1,56,38,22,29.38,29.24,6,1,9,0.00
2014-12-13,65.7,40.8,24.6,27.4,18.7,12.7,65,44,23,29.35,29.18,4,0,6,0.00
2014-12-14,63.7,42.6,28.8,32.5,24.2,16.5,73,50,30,29.26,29.15,6,1,6,0.00
2014-12-15,64.8,41.2,27.0,37.5,27.9,21.5,83,62,34,29.35,29.18,10,0,10,0.00
2014-12-16,53.2,42.8,31.6,46.6,37.9,26.5,97,83,67,29.24,29.00,6,0,6,0.04
2014-12-17,63.0,44.8,34.0,40.8,31.0,23.6,91,63,31,29.29,29.18,8,1,8,0.04
2014-12-18,48.6,38.6,28.8,28.3,23.1,20.2,77,55,37,29.35,29.24,6,0,6,0.00
2014-12-19,58.8,41.9,31.8,28.1,22.4,17.6,67,48,28,29.38,29.24,6,0,6,0.00
2014-12-20,40.1,36.0,33.1,30.8,25.9,21.5,79,67,58,29.47,29.35,4,0,4,0.00
2014-12-21,50.7,41.0,34.2,35.8,31.6,29.3,86,70,48,29.47,29.35,4,0,4,0.00
2014-12-22,39.7,36.0,34.3,34.8,32.7,28.8,97,88,66,29.41,29.18,8,0,8,0.13
2014-12-23,43.9,40.3,35.6,43.7,39.7,34.6,100,97,92,29.26,29.09,2,0,2,0.24
2014-12-24,63.3,48.4,43.0,63.1,48.2,43.0,100,99,88,29.12,28.82,9,0,9,0.84
2014-12-25,58.8,47.9,29.5,55.8,33.8,24.6,97,61,35,29.44,28.85,9,1,9,0.03
2014-12-26,64.8,39.7,25.0,41.7,27.8,17.9,91,67,32,29.50,29.41,9,0,9,0.00
2014-12-27,68.4,47.0,28.9,41.2,31.5,26.1,92,60,28,29.50,29.32,8,0,8,0.00
2014-12-28,60.1,54.0,46.2,51.9,43.9,32.9,96,71,47,29.35,29.15,11,1,11,0.00
2014-12-29,52.0,45.5,38.5,51.8,44.8,37.7,100,97,88,29.38,29.24,6,0,6,0.54
2014-12-30,41.5,35.1,26.1,38.5,31.3,23.8,100,86,63,29.62,29.35,6,0,6,0.13
2014-12-31,45.3,31.4,23.5,33.6,21.2,15.4,94,70,36,29.65,29.47,6,0,6,0.00
2015-1-1,56.5,35.9,20.3,29.1,21.1,15.7,85,59,28,29.53,29.35,8,1,8,0.00
2015-1-2,54.0,44.6,35.6,37.3,32.2,27.2,80,63,45,29.56,29.35,5,0,5,0.00